Time;durP1;ratioP1;P1;durP2;ratioP2;P2;SDS_P1;SDS_P2;PMS_P1;PMS_P2;Temp;Humidity;BMP_temperature;BMP_pressure;BME280_temperature;BME280_humidity;BME280_pressure;Samples;Min_cycle;Max_cycle;Signal;HPM_P1;HPM_P2
2022/01/15 00:01:53;;;;;;;79.30;30.30;;;1.00;40.90;;;;;;5010684;28;21238;-66
2022/01/15 00:04:20;;;;;;;76.83;32.00;;;1.00;40.70;;;;;;5007114;28;20488;-65
2022/01/15 00:06:46;;;;;;;83.67;32.87;;;0.90;40.70;;;;;;5004121;28;20982;-67
2022/01/15 00:09:15;;;;;;;82.57;33.40;;;0.90;40.90;;;;;;5001978;28;20522;-68
2022/01/15 00:11:44;;;;;;;75.80;30.57;;;0.90;40.90;;;;;;5006048;28;20468;-67
2022/01/15 00:14:13;;;;;;;83.63;29.70;;;0.90;40.90;;;;;;5007319;28;20476;-67
2022/01/15 00:16:50;;;;;;;84.80;33.20;;;0.90;41.10;;;;;;5007927;28;20491;-67
2022/01/15 00:19:18;;;;;;;82.67;31.00;;;0.90;41.60;;;;;;5004854;28;20491;-68
2022/01/15 00:21:47;;;;;;;86.47;34.23;;;0.90;41.40;;;;;;5006541;28;20478;-67
2022/01/15 00:24:15;;;;;;;83.70;33.10;;;0.80;41.30;;;;;;5007284;28;20554;-67
2022/01/15 00:26:41;;;;;;;78.60;31.67;;;0.80;41.40;;;;;;5002025;28;20565;-68
2022/01/15 00:29:08;;;;;;;83.80;30.83;;;0.80;41.30;;;;;;5004317;28;20488;-66
2022/01/15 00:31:35;;;;;;;80.40;32.00;;;1.10;41.40;;;;;;5010650;28;20561;-67
2022/01/15 00:34:03;;;;;;;80.97;29.77;;;0.80;41.30;;;;;;5008322;28;20479;-67
2022/01/15 00:36:30;;;;;;;81.07;29.50;;;0.80;41.60;;;;;;5007613;28;20482;-67
2022/01/15 00:38:56;;;;;;;81.53;30.07;;;0.80;41.50;;;;;;5007238;28;20470;-65
2022/01/15 00:41:23;;;;;;;78.93;31.40;;;0.80;41.40;;;;;;5005693;28;20486;-66
2022/01/15 00:43:50;;;;;;;87.73;32.67;;;0.70;41.40;;;;;;5003354;28;20464;-67
2022/01/15 00:46:16;;;;;;;79.43;29.00;;;0.70;41.60;;;;;;5008234;28;20881;-67
2022/01/15 00:48:43;;;;;;;87.83;32.23;;;0.70;41.60;;;;;;5006284;28;20491;-67
2022/01/15 00:51:11;;;;;;;83.23;31.00;;;0.70;41.40;;;;;;5006827;28;20464;-66
2022/01/15 00:53:38;;;;;;;79.50;32.63;;;0.70;41.60;;;;;;5005099;28;20470;-65
2022/01/15 00:56:05;;;;;;;75.77;27.80;;;0.80;41.50;;;;;;5006308;28;20468;-67
2022/01/15 00:58:32;;;;;;;78.33;31.43;;;0.70;41.30;;;;;;5004362;28;20468;-66
2022/01/15 01:00:58;;;;;;;78.23;31.20;;;0.70;41.40;;;;;;4999839;28;20469;-66
2022/01/15 01:03:25;;;;;;;78.57;33.20;;;0.70;41.50;;;;;;5010970;28;20953;-68
2022/01/15 01:05:52;;;;;;;86.03;32.10;;;0.70;41.50;;;;;;5006756;28;20515;-66
2022/01/15 01:08:20;;;;;;;79.73;31.00;;;0.70;41.30;;;;;;5007513;28;20456;-67
2022/01/15 01:10:53;;;;;;;77.93;30.80;;;0.70;41.70;;;;;;5007811;28;20491;-67
2022/01/15 01:20:02;;;;;;;77.13;30.73;;;0.70;41.40;;;;;;5003679;28;20513;-66
2022/01/15 01:24:41;;;;;;;83.50;29.57;;;0.60;40.90;;;;;;5003311;28;20478;-67
2022/01/15 01:27:13;;;;;;;83.93;32.03;;;0.50;41.00;;;;;;5011472;28;20458;-66
2022/01/15 01:29:51;;;;;;;77.77;32.07;;;0.60;41.20;;;;;;5011457;28;20537;-66
2022/01/15 01:32:36;;;;;;;79.97;29.50;;;0.50;41.20;;;;;;4996842;28;20471;-67
2022/01/15 01:35:09;;;;;;;73.83;28.33;;;0.50;41.30;;;;;;5008899;28;20480;-67
2022/01/15 01:37:40;;;;;;;78.83;28.63;;;0.50;41.30;;;;;;5010947;28;20452;-66
2022/01/15 01:40:19;;;;;;;72.37;27.20;;;0.50;41.00;;;;;;5011185;28;20483;-66
2022/01/15 01:42:56;;;;;;;73.40;28.10;;;0.50;41.00;;;;;;5010582;28;20578;-66
2022/01/15 01:45:23;;;;;;;76.67;28.17;;;0.50;41.00;;;;;;5008228;28;20479;-65
2022/01/15 01:47:50;;;;;;;75.57;28.37;;;0.50;40.90;;;;;;5004518;28;20453;-67
2022/01/15 01:50:19;;;;;;;72.90;26.40;;;0.40;40.90;;;;;;4999087;28;21020;-66
2022/01/15 01:52:47;;;;;;;74.10;26.63;;;0.40;40.90;;;;;;5009948;28;20457;-67
2022/01/15 01:55:16;;;;;;;76.70;29.30;;;0.40;40.90;;;;;;5010147;28;20487;-67
2022/01/15 01:57:44;;;;;;;72.63;26.37;;;0.40;40.70;;;;;;5011217;28;21085;-67
2022/01/15 02:00:14;;;;;;;77.10;29.37;;;0.30;40.60;;;;;;5010603;28;20479;-66
2022/01/15 02:02:41;;;;;;;79.80;30.27;;;0.30;41.40;;;;;;5010714;28;20452;-66
2022/01/15 02:05:09;;;;;;;74.97;29.33;;;0.30;40.70;;;;;;5009818;28;20475;-67
2022/01/15 02:07:36;;;;;;;84.78;33.80;;;0.30;40.80;;;;;;5009933;28;20458;-65
2022/01/15 02:10:07;;;;;;;91.43;33.80;;;0.20;42.00;;;;;;5017913;28;20217;-66
2022/01/15 02:12:35;;;;;;;87.90;30.20;;;0.30;41.10;;;;;;5020963;28;20461;-66
2022/01/15 02:15:06;;;;;;;81.20;29.93;;;0.30;40.70;;;;;;5010469;28;20475;-66
2022/01/15 02:17:33;;;;;;;82.97;30.90;;;0.20;40.70;;;;;;5001895;28;20468;-67
2022/01/15 02:20:24;;;;;;;83.07;30.60;;;0.20;40.60;;;;;;5010604;28;20970;-67
2022/01/15 02:25:42;;;;;;;72.10;26.40;;;0.10;40.80;;;;;;5010215;28;20859;-67
2022/01/15 02:28:09;;;;;;;80.00;29.53;;;0.10;41.00;;;;;;5010452;28;20488;-66
2022/01/15 02:30:36;;;;;;;82.20;30.20;;;0.10;40.80;;;;;;5009587;28;20479;-67
2022/01/15 02:33:03;;;;;;;74.40;27.83;;;0.00;40.80;;;;;;5009091;28;20490;-66
2022/01/15 02:35:31;;;;;;;85.70;28.70;;;0.00;41.20;;;;;;5010222;28;21001;-66
2022/01/15 02:38:02;;;;;;;76.57;28.70;;;-0.10;41.40;;;;;;5026275;23;20796;-67
2022/01/15 02:40:29;;;;;;;77.87;29.70;;;-0.10;41.20;;;;;;5018263;28;20455;-66
2022/01/15 02:42:56;;;;;;;85.30;30.27;;;-0.10;41.40;;;;;;5022196;28;21096;-67
2022/01/15 02:45:26;;;;;;;77.90;30.47;;;-0.10;41.60;;;;;;5028103;28;20451;-67
2022/01/15 02:48:01;;;;;;;84.10;31.67;;;-0.10;42.20;;;;;;5030159;28;20566;-66
2022/01/15 02:50:28;;;;;;;73.43;28.93;;;-0.20;41.50;;;;;;5005621;28;20486;-66
2022/01/15 02:52:57;;;;;;;78.67;30.33;;;-0.20;41.70;;;;;;5011600;28;20468;-66
2022/01/15 02:55:24;;;;;;;72.27;26.60;;;-0.20;41.90;;;;;;5002097;28;20468;-66
2022/01/15 02:57:50;;;;;;;78.80;27.43;;;-0.20;41.80;;;;;;4990712;28;20484;-65
2022/01/15 03:00:18;;;;;;;83.37;28.87;;;-0.20;41.70;;;;;;4995460;28;20452;-67
2022/01/15 03:02:44;;;;;;;78.40;30.87;;;-0.20;42.40;;;;;;5012414;28;20463;-67
2022/01/15 03:05:12;;;;;;;79.93;29.40;;;-0.30;41.80;;;;;;5009853;28;20844;-66
2022/01/15 03:07:38;;;;;;;75.60;28.63;;;-0.20;41.90;;;;;;4994442;28;20461;-66
2022/01/15 03:10:09;;;;;;;77.17;28.10;;;-0.30;41.70;;;;;;5001622;28;20491;-67
2022/01/15 03:12:36;;;;;;;78.03;26.80;;;-0.30;42.00;;;;;;5012642;28;20490;-66
2022/01/15 03:15:04;;;;;;;80.70;27.97;;;-0.30;42.00;;;;;;5016071;28;20464;-66
2022/01/15 03:17:31;;;;;;;84.03;29.23;;;-0.30;42.00;;;;;;4990310;28;20465;-66
2022/01/15 03:19:58;;;;;;;79.87;28.50;;;-0.30;42.10;;;;;;4993937;28;20456;-67
2022/01/15 03:22:25;;;;;;;76.17;26.67;;;-0.30;42.00;;;;;;5006411;28;20467;-66
2022/01/15 03:24:52;;;;;;;76.30;27.90;;;-0.30;42.20;;;;;;5011533;28;20464;-66
2022/01/15 03:27:23;;;;;;;84.47;30.20;;;-0.30;42.30;;;;;;4997303;28;20468;-66
2022/01/15 03:29:50;;;;;;;81.70;29.03;;;-0.30;42.20;;;;;;5007349;28;20486;-67
2022/01/15 03:32:17;;;;;;;75.03;27.73;;;-0.30;42.10;;;;;;4992758;28;20472;-67
2022/01/15 03:34:44;;;;;;;79.37;29.10;;;-0.30;42.10;;;;;;5008251;28;20458;-67
2022/01/15 03:37:11;;;;;;;80.67;29.13;;;-0.30;42.20;;;;;;5000243;28;20457;-67
2022/01/15 03:39:38;;;;;;;82.13;30.80;;;-0.30;42.30;;;;;;5002220;28;20483;-67
2022/01/15 03:42:11;;;;;;;73.70;29.00;;;-0.30;42.30;;;;;;5008634;28;20460;-67
2022/01/15 03:44:40;;;;;;;73.93;25.40;;;-0.30;42.50;;;;;;5016006;28;20487;-67
2022/01/15 03:47:07;;;;;;;71.30;25.23;;;-0.30;42.50;;;;;;5026545;28;20461;-67
2022/01/15 03:49:33;;;;;;;75.50;23.63;;;-0.30;42.60;;;;;;4992747;28;20481;-67
2022/01/15 03:52:00;;;;;;;66.60;21.73;;;-0.40;42.50;;;;;;4994618;28;20461;-66
2022/01/15 03:54:27;;;;;;;70.50;23.40;;;-0.40;42.40;;;;;;5010470;28;20579;-67
2022/01/15 03:56:53;;;;;;;68.30;22.10;;;-0.40;42.50;;;;;;5020326;28;20511;-67
2022/01/15 03:59:20;;;;;;;65.83;21.53;;;-0.40;42.40;;;;;;5008184;28;20506;-67
2022/01/15 04:01:49;;;;;;;59.17;19.20;;;-0.50;42.40;;;;;;5006837;28;20483;-66
2022/01/15 04:04:15;;;;;;;59.93;19.53;;;-0.50;42.20;;;;;;5010098;28;20460;-67
2022/01/15 04:06:42;;;;;;;65.67;20.90;;;-0.50;42.40;;;;;;5014959;28;20463;-67
2022/01/15 04:09:10;;;;;;;63.97;20.33;;;-0.50;42.40;;;;;;5008129;28;20490;-66
2022/01/15 04:11:37;;;;;;;62.27;21.53;;;-0.50;42.60;;;;;;4999719;28;20480;-67
2022/01/15 04:14:04;;;;;;;66.27;21.97;;;-0.40;42.60;;;;;;4996358;28;21001;-67
2022/01/15 04:16:31;;;;;;;62.37;23.30;;;-0.40;42.50;;;;;;5014137;28;20475;-66
2022/01/15 04:19:00;;;;;;;70.40;21.73;;;-0.50;42.60;;;;;;5008250;28;20486;-67
2022/01/15 04:21:28;;;;;;;63.87;20.73;;;-0.40;42.50;;;;;;4992758;28;20453;-67
2022/01/15 04:23:55;;;;;;;56.47;18.60;;;-0.40;42.60;;;;;;5000480;28;20459;-67
2022/01/15 04:26:25;;;;;;;62.33;20.57;;;-0.50;42.60;;;;;;5009216;28;20480;-67
2022/01/15 04:28:52;;;;;;;57.03;17.13;;;-0.50;42.60;;;;;;5003251;28;20477;-67
2022/01/15 04:31:19;;;;;;;55.47;16.60;;;-0.50;42.60;;;;;;5006144;28;20464;-67
2022/01/15 04:33:46;;;;;;;54.53;16.90;;;-0.60;42.70;;;;;;4995450;28;20457;-66
2022/01/15 04:36:15;;;;;;;56.70;16.67;;;-0.50;42.90;;;;;;5007417;28;20470;-66
2022/01/15 04:38:42;;;;;;;58.30;16.53;;;-0.60;42.70;;;;;;5017915;28;20487;-67
2022/01/15 04:41:10;;;;;;;52.93;16.20;;;-0.50;42.80;;;;;;5027472;28;20451;-66
2022/01/15 04:43:37;;;;;;;53.87;16.07;;;-0.60;42.70;;;;;;5002069;28;20463;-67
2022/01/15 04:46:03;;;;;;;55.20;18.93;;;-0.70;42.70;;;;;;4998303;28;20476;-67
2022/01/15 04:48:30;;;;;;;54.80;15.37;;;-0.70;42.70;;;;;;5012007;28;20486;-67
2022/01/15 04:50:57;;;;;;;56.00;15.73;;;-0.70;42.80;;;;;;5008884;28;20479;-67
2022/01/15 04:53:25;;;;;;;53.07;15.40;;;-0.70;42.80;;;;;;4998984;28;20826;-66
2022/01/15 04:55:51;;;;;;;52.47;14.90;;;-0.70;43.00;;;;;;5003422;28;20472;-66
2022/01/15 04:58:18;;;;;;;55.53;16.17;;;-0.70;42.80;;;;;;5016493;28;20485;-67
2022/01/15 05:00:45;;;;;;;54.57;16.87;;;-0.70;43.00;;;;;;5023234;28;21005;-67
2022/01/15 05:03:12;;;;;;;57.03;18.93;;;-0.70;43.20;;;;;;5007845;28;20456;-67
2022/01/15 05:05:39;;;;;;;56.60;17.30;;;-0.80;43.10;;;;;;5009963;28;20463;-67
2022/01/15 05:08:06;;;;;;;61.70;19.23;;;-0.80;43.20;;;;;;5012259;28;20491;-67
2022/01/15 05:10:34;;;;;;;62.13;20.13;;;-0.70;43.60;;;;;;5018908;28;20537;-66
2022/01/15 05:13:02;;;;;;;60.63;17.50;;;-0.80;43.60;;;;;;4999788;28;20461;-66
2022/01/15 05:15:29;;;;;;;57.97;17.87;;;-0.80;43.50;;;;;;4992360;28;21111;-65
2022/01/15 05:17:55;;;;;;;58.87;17.70;;;-0.70;43.90;;;;;;5012782;28;20482;-66
2022/01/15 05:20:22;;;;;;;63.77;19.07;;;-0.70;44.00;;;;;;5001819;28;20461;-64
2022/01/15 05:22:50;;;;;;;61.30;19.23;;;-0.70;44.00;;;;;;5016347;28;21206;-67
2022/01/15 05:25:18;;;;;;;56.80;16.97;;;-0.70;44.20;;;;;;5023065;28;20886;-66
2022/01/15 05:27:47;;;;;;;61.40;17.90;;;-0.70;44.10;;;;;;5005177;28;20859;-67
2022/01/15 05:30:14;;;;;;;57.50;18.73;;;-0.70;44.10;;;;;;5006233;28;20480;-67
2022/01/15 05:32:41;;;;;;;56.70;18.13;;;-0.70;43.90;;;;;;4995225;28;20468;-67
2022/01/15 05:35:09;;;;;;;54.73;16.50;;;-0.70;43.90;;;;;;5014282;28;20875;-67
2022/01/15 05:37:36;;;;;;;60.77;17.53;;;-0.70;43.70;;;;;;5031312;28;20466;-67
2022/01/15 05:40:04;;;;;;;55.60;16.90;;;-0.70;43.50;;;;;;5025433;28;20471;-66
2022/01/15 05:42:30;;;;;;;60.67;19.10;;;-0.70;43.40;;;;;;5002410;28;20454;-65
2022/01/15 05:44:58;;;;;;;63.80;18.77;;;-0.70;44.40;;;;;;5022118;28;20462;-68
2022/01/15 05:47:25;;;;;;;58.13;15.80;;;-0.60;43.60;;;;;;5011266;28;20463;-66
2022/01/15 05:49:52;;;;;;;59.07;16.23;;;-0.60;43.20;;;;;;5010119;28;21179;-67
2022/01/15 05:52:18;;;;;;;56.73;16.97;;;-0.60;43.20;;;;;;5010182;28;20920;-67
2022/01/15 05:54:45;;;;;;;56.07;17.40;;;-0.70;43.10;;;;;;5010321;28;20471;-66
2022/01/15 05:57:12;;;;;;;58.40;18.30;;;-0.70;43.20;;;;;;5006016;28;20452;-66
2022/01/15 05:59:38;;;;;;;55.80;17.30;;;-0.70;43.00;;;;;;5008394;28;21002;-67
2022/01/15 06:02:06;;;;;;;57.77;16.43;;;-0.70;42.80;;;;;;5004892;28;20478;-67
2022/01/15 06:04:33;;;;;;;57.63;18.83;;;-0.70;43.00;;;;;;5006853;28;20467;-65
2022/01/15 06:07:00;;;;;;;57.13;16.87;;;-0.80;42.90;;;;;;5016077;28;20466;-67
2022/01/15 06:09:26;;;;;;;61.77;18.43;;;-0.70;43.00;;;;;;5008489;28;20480;-66
2022/01/15 06:11:55;;;;;;;54.67;18.20;;;-0.70;42.90;;;;;;5006808;28;21020;-66
2022/01/15 06:14:22;;;;;;;56.73;17.37;;;-0.80;42.90;;;;;;5009633;28;20470;-66
2022/01/15 06:16:49;;;;;;;52.90;16.13;;;-0.80;42.80;;;;;;5015551;28;20483;-66
2022/01/15 06:19:17;;;;;;;58.90;17.53;;;-0.80;42.70;;;;;;5007653;28;21756;-67
2022/01/15 06:21:44;;;;;;;56.20;17.63;;;-0.80;42.50;;;;;;4997689;28;20457;-66
2022/01/15 06:24:10;;;;;;;58.93;17.73;;;-0.80;42.60;;;;;;5000429;28;20461;-65
2022/01/15 06:26:37;;;;;;;59.57;17.77;;;-0.70;42.50;;;;;;5014006;28;20873;-66
2022/01/15 06:29:04;;;;;;;56.27;16.83;;;-0.70;42.50;;;;;;5005812;28;20484;-67
2022/01/15 06:31:31;;;;;;;55.87;18.23;;;-0.70;42.40;;;;;;5004850;28;20472;-66
2022/01/15 06:33:58;;;;;;;55.90;17.83;;;-0.70;42.40;;;;;;5009892;28;20459;-66
2022/01/15 06:36:26;;;;;;;57.10;18.73;;;-0.70;42.30;;;;;;5015669;28;20463;-66
2022/01/15 06:38:52;;;;;;;59.73;19.30;;;-0.70;42.30;;;;;;5024794;28;20486;-67
2022/01/15 06:41:19;;;;;;;62.53;18.87;;;-0.70;42.40;;;;;;4996679;28;20449;-66
2022/01/15 06:43:46;;;;;;;58.80;19.90;;;-0.70;42.50;;;;;;5001788;28;20812;-67
2022/01/15 06:46:13;;;;;;;60.70;18.70;;;-0.60;42.70;;;;;;5005443;28;20543;-67
2022/01/15 06:48:40;;;;;;;57.37;18.97;;;-0.60;42.70;;;;;;5022092;28;20478;-67
2022/01/15 06:51:07;;;;;;;71.27;19.13;;;-0.50;42.90;;;;;;5028738;28;20491;-67
2022/01/15 06:53:35;;;;;;;61.20;18.70;;;-0.60;43.00;;;;;;4997705;28;20453;-66
2022/01/15 06:56:01;;;;;;;61.93;16.90;;;-0.60;43.20;;;;;;4993599;28;20472;-67
2022/01/15 06:58:28;;;;;;;66.60;18.43;;;-0.50;43.40;;;;;;5010010;28;20470;-66
2022/01/15 07:00:55;;;;;;;63.33;19.07;;;-0.50;43.30;;;;;;4993020;28;20904;-68
2022/01/15 07:03:21;;;;;;;64.93;18.73;;;-0.50;43.30;;;;;;4993071;28;20845;-66
2022/01/15 07:05:48;;;;;;;68.47;18.43;;;-0.50;43.50;;;;;;5001256;28;20467;-67
2022/01/15 07:08:15;;;;;;;66.60;17.60;;;-0.30;43.90;;;;;;5002475;28;20498;-66
2022/01/15 07:10:43;;;;;;;81.93;21.60;;;-0.40;43.70;;;;;;4996544;28;20484;-68
2022/01/15 07:13:11;;;;;;;63.67;17.23;;;-0.40;43.90;;;;;;5002366;28;20518;-66
2022/01/15 07:15:38;;;;;;;65.10;20.30;;;-0.40;43.90;;;;;;4998847;28;20465;-65
2022/01/15 07:18:04;;;;;;;76.37;22.00;;;-0.40;44.00;;;;;;5008306;28;20483;-67
2022/01/15 07:20:31;;;;;;;85.00;24.90;;;-0.40;44.00;;;;;;5005721;28;20557;-72
2022/01/15 07:22:59;;;;;;;67.77;20.30;;;-0.30;44.10;;;;;;4999157;28;21037;-70
2022/01/15 07:25:26;;;;;;;67.27;19.90;;;-0.30;44.20;;;;;;5005219;28;20459;-60
2022/01/15 07:27:54;;;;;;;75.33;19.53;;;-0.30;44.40;;;;;;5004764;28;20491;-62
2022/01/15 07:30:21;;;;;;;78.93;18.73;;;-0.30;44.30;;;;;;5010117;28;20455;-63
2022/01/15 07:32:47;;;;;;;69.27;21.27;;;-0.30;44.40;;;;;;5009708;28;20491;-63
2022/01/15 07:35:14;;;;;;;61.67;19.07;;;-0.20;44.50;;;;;;5007275;28;20452;-62
2022/01/15 07:37:42;;;;;;;79.73;19.00;;;-0.20;44.50;;;;;;5008327;28;20467;-64
2022/01/15 07:40:10;;;;;;;68.40;18.87;;;0.00;44.40;;;;;;5012100;28;20468;-63
2022/01/15 07:42:38;;;;;;;70.00;18.80;;;-0.10;44.40;;;;;;5006957;28;20914;-64
2022/01/15 07:45:09;;;;;;;70.33;19.00;;;0.00;44.50;;;;;;5008563;28;20900;-63
2022/01/15 07:47:36;;;;;;;70.33;17.90;;;0.00;44.70;;;;;;5016394;28;21036;-63
2022/01/15 07:50:03;;;;;;;68.87;17.20;;;0.10;44.70;;;;;;5004699;28;20472;-61
2022/01/15 07:52:30;;;;;;;66.17;17.37;;;0.10;44.40;;;;;;5004697;28;20484;-61
2022/01/15 07:54:58;;;;;;;62.50;17.33;;;0.20;44.40;;;;;;4996811;28;20464;-67
2022/01/15 07:57:24;;;;;;;61.60;17.70;;;0.20;44.40;;;;;;5007339;28;20493;-67
2022/01/15 07:59:52;;;;;;;65.13;18.40;;;0.30;44.40;;;;;;4994749;28;20520;-69
2022/01/15 08:02:21;;;;;;;72.53;18.57;;;0.30;44.30;;;;;;5001820;28;20505;-72
2022/01/15 08:04:47;;;;;;;58.57;17.43;;;0.40;44.00;;;;;;5004725;28;20468;-69
2022/01/15 08:07:14;;;;;;;60.67;16.90;;;0.40;43.90;;;;;;5004077;28;20491;-69
2022/01/15 08:09:41;;;;;;;68.13;18.77;;;0.40;43.90;;;;;;4998152;28;20478;-72
2022/01/15 08:12:08;;;;;;;55.93;16.40;;;0.50;43.90;;;;;;4998875;28;20487;-69
2022/01/15 08:14:35;;;;;;;64.30;17.80;;;0.50;43.80;;;;;;4997330;28;20472;-68
2022/01/15 08:17:02;;;;;;;65.73;17.90;;;0.60;43.70;;;;;;4996525;28;20469;-66
2022/01/15 08:19:30;;;;;;;61.27;19.00;;;0.60;43.70;;;;;;5000267;28;21159;-68
2022/01/15 08:21:57;;;;;;;59.93;18.07;;;0.70;43.70;;;;;;5003467;28;20463;-66
2022/01/15 08:24:23;;;;;;;66.30;17.07;;;0.70;43.50;;;;;;5003407;28;20466;-70
2022/01/15 08:26:51;;;;;;;66.00;18.27;;;0.70;43.20;;;;;;5005000;28;20464;-69
2022/01/15 08:29:18;;;;;;;70.23;18.07;;;0.80;43.00;;;;;;5019159;28;20851;-70
2022/01/15 08:31:45;;;;;;;55.40;16.70;;;0.80;42.70;;;;;;5008427;28;20476;-68
2022/01/15 08:34:12;;;;;;;77.73;18.20;;;0.80;42.70;;;;;;4993546;28;20984;-67
2022/01/15 08:36:40;;;;;;;58.60;19.37;;;0.90;42.50;;;;;;5003543;28;20452;-66
2022/01/15 08:39:08;;;;;;;61.27;17.53;;;0.90;42.30;;;;;;5033448;23;20482;-62
2022/01/15 08:41:35;;;;;;;62.13;18.60;;;0.90;42.10;;;;;;5017262;28;20886;-64
2022/01/15 08:44:01;;;;;;;64.40;17.77;;;0.90;42.20;;;;;;5008751;28;20459;-62
2022/01/15 08:46:28;;;;;;;61.43;18.10;;;0.90;41.90;;;;;;5008401;28;20456;-62
2022/01/15 08:48:55;;;;;;;67.67;18.80;;;0.90;42.10;;;;;;5032910;28;20478;-63
2022/01/15 08:51:22;;;;;;;69.17;20.80;;;0.90;42.20;;;;;;5028195;28;21027;-61
2022/01/15 08:53:50;;;;;;;62.80;19.73;;;1.00;42.10;;;;;;5039326;28;20521;-59
2022/01/15 08:56:17;;;;;;;63.70;19.40;;;1.00;41.90;;;;;;5022012;28;20460;-63
2022/01/15 08:58:43;;;;;;;64.07;18.73;;;1.10;42.10;;;;;;5025971;28;20510;-59
2022/01/15 09:01:13;;;;;;;83.30;26.53;;;1.10;42.00;;;;;;5035508;28;20474;-61
2022/01/15 09:03:40;;;;;;;62.97;21.57;;;1.10;42.10;;;;;;5023353;28;20459;-61
2022/01/15 09:06:07;;;;;;;62.93;19.93;;;1.10;42.10;;;;;;5028518;28;20462;-60
2022/01/15 09:08:34;;;;;;;58.50;19.00;;;1.20;41.90;;;;;;5017522;28;20517;-60
2022/01/15 09:11:02;;;;;;;60.57;20.17;;;1.20;41.80;;;;;;5038183;28;20821;-60
2022/01/15 09:13:29;;;;;;;59.50;20.70;;;1.20;41.80;;;;;;5020348;28;20459;-60
2022/01/15 09:15:57;;;;;;;65.60;21.97;;;1.20;41.80;;;;;;5014916;28;20470;-58
2022/01/15 09:18:24;;;;;;;77.77;23.90;;;1.30;41.90;;;;;;5017110;28;20541;-63
2022/01/15 09:20:50;;;;;;;63.23;21.83;;;1.30;41.90;;;;;;5018697;28;21034;-60
2022/01/15 09:23:17;;;;;;;64.07;21.93;;;1.40;41.90;;;;;;5023145;28;20455;-60
2022/01/15 09:25:44;;;;;;;61.63;19.90;;;1.40;42.50;;;;;;5019052;28;20479;-62
2022/01/15 09:30:56;;;;;;;60.97;20.97;;;1.60;41.90;;;;;;5026247;28;20470;-61
2022/01/15 09:33:23;;;;;;;63.20;20.50;;;1.60;42.00;;;;;;5026131;28;21134;-59
2022/01/15 09:35:50;;;;;;;71.10;22.97;;;1.70;42.10;;;;;;5022746;28;20454;-62
2022/01/15 09:38:16;;;;;;;60.93;23.40;;;1.80;42.10;;;;;;5021851;28;20463;-61
2022/01/15 09:40:43;;;;;;;62.97;21.37;;;1.90;42.10;;;;;;5026166;28;20462;-62
2022/01/15 09:43:13;;;;;;;60.23;21.70;;;2.00;41.70;;;;;;5030726;28;20466;-65
2022/01/15 09:45:40;;;;;;;71.13;24.00;;;2.00;41.70;;;;;;5030645;28;20896;-65
2022/01/15 09:48:08;;;;;;;77.37;21.50;;;2.00;41.40;;;;;;5030219;28;20833;-64
2022/01/15 09:50:41;;;;;;;74.20;24.17;;;2.00;41.10;;;;;;5032752;28;20457;-65
2022/01/15 09:53:08;;;;;;;76.77;25.73;;;2.10;41.10;;;;;;5026754;28;21008;-64
2022/01/15 09:55:35;;;;;;;71.60;22.43;;;2.10;41.10;;;;;;5027927;28;20517;-64
2022/01/15 09:58:02;;;;;;;69.23;24.03;;;2.10;41.00;;;;;;5030948;28;20463;-66
2022/01/15 10:00:30;;;;;;;72.73;24.07;;;2.10;41.00;;;;;;5029333;28;20482;-65
2022/01/15 10:02:57;;;;;;;71.90;24.60;;;2.20;40.90;;;;;;5042896;28;20851;-65
2022/01/15 10:05:25;;;;;;;67.20;22.63;;;2.20;40.80;;;;;;5026377;28;20463;-64
2022/01/15 10:07:57;;;;;;;71.97;25.10;;;2.20;40.70;;;;;;5020183;28;20467;-64
2022/01/15 10:10:25;;;;;;;65.30;23.93;;;2.20;41.00;;;;;;5028780;28;20971;-64
2022/01/15 10:12:53;;;;;;;71.47;24.73;;;2.20;40.80;;;;;;5038241;28;20486;-64
2022/01/15 10:15:20;;;;;;;71.70;26.30;;;2.20;40.90;;;;;;5029882;28;20455;-64
2022/01/15 10:17:49;;;;;;;71.60;25.40;;;2.20;41.00;;;;;;5029539;28;20977;-65
2022/01/15 10:20:18;;;;;;;76.77;25.87;;;2.30;41.10;;;;;;5020857;28;20494;-65
2022/01/15 10:22:46;;;;;;;70.37;25.80;;;2.30;40.90;;;;;;5035089;28;20983;-65
2022/01/15 10:25:19;;;;;;;78.70;24.90;;;2.40;40.90;;;;;;5032357;28;20462;-65
2022/01/15 10:27:47;;;;;;;73.37;25.67;;;2.40;40.40;;;;;;5028648;28;20459;-64
2022/01/15 10:30:16;;;;;;;83.00;27.07;;;2.50;41.30;;;;;;5028842;28;20514;-64
2022/01/15 10:32:56;;;;;;;74.50;26.87;;;2.50;40.20;;;;;;5025410;28;20487;-61
2022/01/15 10:35:24;;;;;;;69.03;26.13;;;2.60;40.30;;;;;;5021207;28;20471;-61
2022/01/15 10:37:53;;;;;;;70.47;25.83;;;2.60;40.00;;;;;;5027288;28;20470;-61
2022/01/15 10:40:22;;;;;;;75.97;26.27;;;2.70;40.20;;;;;;5029808;28;20483;-62
2022/01/15 10:42:57;;;;;;;73.93;24.53;;;2.70;40.30;;;;;;5032152;28;20471;-62
2022/01/15 10:45:25;;;;;;;75.67;25.00;;;2.70;40.10;;;;;;5040271;28;20458;-62
2022/01/15 10:47:55;;;;;;;77.00;25.20;;;2.70;40.10;;;;;;5029806;28;20463;-62
2022/01/15 10:50:24;;;;;;;68.00;26.10;;;2.80;39.90;;;;;;5025553;28;20482;-61
2022/01/15 10:52:52;;;;;;;68.40;25.63;;;2.80;39.70;;;;;;5025471;28;20485;-62
2022/01/15 10:55:25;;;;;;;72.33;25.43;;;2.80;39.60;;;;;;5024624;28;20471;-64
2022/01/15 10:57:56;;;;;;;81.93;24.87;;;2.70;39.70;;;;;;5020695;28;21166;-60
2022/01/15 11:00:25;;;;;;;91.93;28.20;;;2.70;39.90;;;;;;5025947;28;20858;-61
2022/01/15 11:02:55;;;;;;;75.73;26.50;;;2.70;40.20;;;;;;5025469;28;20463;-62
2022/01/15 11:05:31;;;;;;;76.60;25.97;;;2.70;40.30;;;;;;5028405;28;20470;-62
2022/01/15 11:08:05;;;;;;;75.60;28.47;;;2.70;40.50;;;;;;5023102;28;21102;-63
2022/01/15 11:10:38;;;;;;;77.63;29.70;;;2.80;40.50;;;;;;5026377;28;20489;-61
2022/01/15 11:13:07;;;;;;;76.50;30.67;;;2.80;40.40;;;;;;5019899;28;20491;-58
2022/01/15 11:15:34;;;;;;;68.90;25.27;;;2.80;40.40;;;;;;5023426;28;20463;-60
2022/01/15 11:18:03;;;;;;;78.30;27.40;;;2.80;40.50;;;;;;5027555;28;20463;-62
2022/01/15 11:20:33;;;;;;;75.47;26.63;;;2.80;40.70;;;;;;5028114;28;20474;-62
2022/01/15 11:23:01;;;;;;;80.20;30.20;;;2.80;40.50;;;;;;5027427;28;20498;-62
2022/01/15 11:25:29;;;;;;;79.70;27.73;;;2.90;40.50;;;;;;5024910;28;20463;-63
2022/01/15 11:27:56;;;;;;;81.87;28.87;;;2.90;40.30;;;;;;5023302;28;20485;-62
2022/01/15 11:30:24;;;;;;;74.50;26.70;;;3.00;40.10;;;;;;5021990;28;20478;-62
2022/01/15 11:32:51;;;;;;;81.17;27.50;;;2.90;40.10;;;;;;5022473;28;20488;-62
2022/01/15 11:35:19;;;;;;;76.97;30.17;;;2.90;40.30;;;;;;5025109;28;20467;-63
2022/01/15 11:37:49;;;;;;;78.67;28.87;;;2.90;40.30;;;;;;5022026;28;20988;-63
2022/01/15 11:40:43;;;;;;;85.57;30.70;;;2.90;40.30;;;;;;5024277;28;20967;-61
2022/01/15 11:43:41;;;;;;;88.77;32.87;;;3.00;40.50;;;;;;5007609;28;20455;-61
2022/01/15 11:46:30;;;;;;;78.93;30.33;;;3.00;40.60;;;;;;5021935;28;20499;-63
2022/01/15 11:49:32;;;;;;;102.20;36.10;;;3.00;40.50;;;;;;5026430;28;20569;-62
2022/01/15 11:52:41;;;;;;;94.40;34.27;;;2.90;40.30;;;;;;5025352;28;20501;-63
2022/01/15 11:55:21;;;;;;;82.00;29.90;;;2.80;40.30;;;;;;5022326;28;20557;-61
2022/01/15 11:57:58;;;;;;;83.27;30.77;;;2.70;40.60;;;;;;5020209;28;20471;-62
2022/01/15 12:00:30;;;;;;;80.40;29.63;;;2.70;40.70;;;;;;5024766;28;20483;-62
2022/01/15 12:03:12;;;;;;;87.03;31.90;;;2.70;41.00;;;;;;5025382;28;20465;-61
2022/01/15 12:05:41;;;;;;;76.30;30.07;;;2.70;41.20;;;;;;5025407;28;20467;-62
2022/01/15 12:08:33;;;;;;;80.67;30.90;;;2.70;41.40;;;;;;5022009;28;21046;-63
2022/01/15 12:11:07;;;;;;;85.13;28.97;;;2.70;41.40;;;;;;5020389;28;20469;-60
2022/01/15 12:13:48;;;;;;;83.27;31.90;;;2.70;41.50;;;;;;5026452;28;20484;-62
2022/01/15 12:16:26;;;;;;;88.13;31.60;;;2.70;41.60;;;;;;5027418;28;20550;-63
2022/01/15 12:18:55;;;;;;;97.00;31.37;;;2.70;41.50;;;;;;5028559;28;20483;-62
2022/01/15 12:21:44;;;;;;;85.10;33.30;;;2.70;41.80;;;;;;5023386;28;20455;-61
2022/01/15 12:24:51;;;;;;;85.00;32.00;;;2.60;41.90;;;;;;5016603;28;20454;-62
2022/01/15 12:27:20;;;;;;;86.10;31.27;;;2.60;42.10;;;;;;5019188;28;20478;-62
2022/01/15 12:29:47;;;;;;;100.03;34.17;;;2.60;42.10;;;;;;5015365;28;20832;-63
2022/01/15 12:32:28;;;;;;;81.17;30.00;;;2.60;42.20;;;;;;5022936;28;20521;-63
2022/01/15 12:34:55;;;;;;;78.77;28.40;;;2.70;42.40;;;;;;5018359;28;20458;-64
2022/01/15 12:37:22;;;;;;;91.40;29.93;;;2.60;42.20;;;;;;5023609;28;20471;-62
2022/01/15 12:39:50;;;;;;;79.00;27.70;;;2.70;42.50;;;;;;5015419;28;20487;-62
2022/01/15 12:42:17;;;;;;;80.03;27.50;;;2.70;42.40;;;;;;5025283;28;20463;-63
2022/01/15 12:44:45;;;;;;;79.60;28.17;;;2.70;42.50;;;;;;5021996;28;20491;-63
2022/01/15 12:47:13;;;;;;;75.13;25.20;;;2.80;42.50;;;;;;5020634;28;20844;-62
2022/01/15 12:49:42;;;;;;;71.97;23.73;;;2.80;42.50;;;;;;5033844;28;20471;-62
2022/01/15 12:52:15;;;;;;;73.00;24.07;;;2.90;42.50;;;;;;5014083;28;20451;-64
2022/01/15 12:54:42;;;;;;;82.70;23.13;;;2.80;42.50;;;;;;5020002;28;20474;-63
2022/01/15 12:57:10;;;;;;;68.83;22.30;;;2.90;42.60;;;;;;5027582;28;20470;-63